createdAt,value
2017-11-26T00:01:05.398Z,70.43
2017-11-26T00:03:41.985Z,70.21
2017-11-26T00:06:14.986Z,70.41
2017-11-26T00:08:58.596Z,70.43
2017-11-26T00:11:32.891Z,70.33
2017-11-26T00:14:08.816Z,70.29
2017-11-26T00:16:41.986Z,70.29
2017-11-26T00:19:19.403Z,70.54
2017-11-26T00:21:52.893Z,70.27
2017-11-26T00:24:27.494Z,70.09
2017-11-26T00:27:01.102Z,70.13
2017-11-26T00:29:34.293Z,70.29
2017-11-26T00:32:08.992Z,70.16
2017-11-26T00:34:44.076Z,70.42
2017-11-26T00:37:19.273Z,70.26
2017-11-26T00:39:51.775Z,70.14
2017-11-26T00:42:24.471Z,70.31
2017-11-26T00:44:59.081Z,69.88
2017-11-26T00:47:34.149Z,69.72
2017-11-26T00:50:07.283Z,69.61
2017-11-26T00:52:43.592Z,69.60
2017-11-26T00:55:22.102Z,69.17
2017-11-26T00:57:55.000Z,69.44
2017-11-26T01:00:29.709Z,69.37
2017-11-26T01:03:02.817Z,69.37
2017-11-26T01:05:37.218Z,69.62
2017-11-26T01:08:11.572Z,69.71
2017-11-26T01:10:44.836Z,69.71
2017-11-26T01:13:28.946Z,69.80
2017-11-26T01:16:01.962Z,69.46
2017-11-26T01:18:35.549Z,69.56
2017-11-26T01:21:10.481Z,70.05
2017-11-26T01:23:42.462Z,70.04
2017-11-26T01:26:17.159Z,69.82
2017-11-26T01:28:49.262Z,69.89
2017-11-26T01:31:22.466Z,69.87
2017-11-26T01:33:56.845Z,69.75
2017-11-26T01:36:28.651Z,69.36
2017-11-26T01:39:02.676Z,69.42
2017-11-26T01:41:35.344Z,69.66
2017-11-26T01:44:07.450Z,70.21
2017-11-26T01:46:42.252Z,70.54
2017-11-26T01:49:22.649Z,70.16
2017-11-26T01:51:56.053Z,69.75
2017-11-26T01:54:28.649Z,69.74
2017-11-26T01:57:02.859Z,69.49
2017-11-26T01:59:39.792Z,69.36
2017-11-26T02:02:20.185Z,69.96
2017-11-26T02:04:56.660Z,69.71
2017-11-26T02:07:32.422Z,69.10
2017-11-26T02:12:52.230Z,69.21
2017-11-26T02:15:26.332Z,68.91
2017-11-26T02:18:01.843Z,68.69
2017-11-26T02:20:34.176Z,68.52
2017-11-26T02:23:10.238Z,68.63
2017-11-26T02:25:44.338Z,68.44
2017-11-26T02:28:28.641Z,67.93
2017-11-26T02:31:02.033Z,67.71
2017-11-26T02:35:56.226Z,67.46
2017-11-26T02:38:29.827Z,67.47
2017-11-26T02:41:02.442Z,67.20
2017-11-26T02:43:39.266Z,66.93
2017-11-26T02:46:18.656Z,67.06
2017-11-26T02:48:58.361Z,66.97
2017-11-26T02:51:33.429Z,67.47
2017-11-26T02:54:05.923Z,67.76
2017-11-26T02:56:40.968Z,67.43
2017-11-26T02:59:18.570Z,67.47
2017-11-26T03:01:54.394Z,67.62
2017-11-26T03:04:26.981Z,67.09
2017-11-26T03:06:59.580Z,67.21
2017-11-26T03:09:34.188Z,67.37
2017-11-26T03:12:11.994Z,67.47
2017-11-26T03:14:46.722Z,67.42
2017-11-26T03:17:21.298Z,67.69
2017-11-26T03:19:54.375Z,67.46
2017-11-26T03:22:27.771Z,67.15
2017-11-26T03:27:45.573Z,67.59
2017-11-26T03:30:24.096Z,67.20
2017-11-26T03:32:57.375Z,66.86
2017-11-26T03:35:33.084Z,66.82
2017-11-26T03:38:12.972Z,66.84
2017-11-26T03:40:46.684Z,67.04
2017-11-26T03:43:19.576Z,66.76
2017-11-26T03:45:54.891Z,66.93
2017-11-26T03:48:27.591Z,67.13
2017-11-26T03:51:01.413Z,66.92
2017-11-26T03:53:38.201Z,67.23
2017-11-26T03:56:13.592Z,67.46
2017-11-26T03:58:47.818Z,67.48
2017-11-26T04:01:20.615Z,67.65
2017-11-26T04:03:53.611Z,67.45
2017-11-26T04:06:26.225Z,67.48
2017-11-26T04:09:13.745Z,67.36
2017-11-26T04:11:46.823Z,67.45
2017-11-26T04:14:26.241Z,67.53
2017-11-26T04:17:00.926Z,67.56
2017-11-26T04:19:44.742Z,67.40
2017-11-26T04:22:23.920Z,67.63
2017-11-26T04:24:58.109Z,67.91
2017-11-26T04:27:37.116Z,67.86
2017-11-26T04:30:24.506Z,67.90
2017-11-26T04:32:58.914Z,68.23
2017-11-26T04:35:32.408Z,68.05
2017-11-26T04:38:06.323Z,68.25
2017-11-26T04:40:40.508Z,67.68
2017-11-26T04:43:13.802Z,67.65
2017-11-26T04:45:46.919Z,67.70
2017-11-26T04:48:22.101Z,67.77
2017-11-26T04:50:57.012Z,68.08
2017-11-26T04:53:34.212Z,68.01
2017-11-26T04:56:09.870Z,67.70
2017-11-26T04:58:43.196Z,67.57
2017-11-26T05:01:26.305Z,67.65
2017-11-26T05:03:58.910Z,67.21
2017-11-26T05:06:35.501Z,67.15
2017-11-26T05:11:50.006Z,67.48
2017-11-26T05:14:22.002Z,67.67
2017-11-26T05:16:57.072Z,67.21
2017-11-26T05:19:30.219Z,67.10
2017-11-26T05:22:02.422Z,66.89
2017-11-26T05:24:39.202Z,66.97
2017-11-26T05:27:15.730Z,66.95
2017-11-26T05:29:49.015Z,67.42
2017-11-26T05:32:23.000Z,67.45
2017-11-26T05:35:04.811Z,67.39
2017-11-26T05:37:38.299Z,66.92
2017-11-26T05:40:11.512Z,67.13
2017-11-26T05:42:45.023Z,67.69
2017-11-26T05:45:21.424Z,67.80
2017-11-26T05:47:56.515Z,67.70
2017-11-26T05:50:29.213Z,67.82
2017-11-26T05:53:02.243Z,67.74
2017-11-26T05:55:39.513Z,67.92
2017-11-26T05:58:11.908Z,67.58
2017-11-26T06:00:51.042Z,67.64
2017-11-26T06:03:25.015Z,67.52
2017-11-26T06:05:58.431Z,67.49
2017-11-26T06:08:34.049Z,67.46
2017-11-26T06:11:06.552Z,67.33
2017-11-26T06:13:39.557Z,67.39
2017-11-26T06:16:16.469Z,67.75
2017-11-26T06:18:54.366Z,67.54
2017-11-26T06:21:27.480Z,67.91
2017-11-26T06:24:00.321Z,67.38
2017-11-26T06:26:35.386Z,67.60
2017-11-26T06:29:07.775Z,67.34
2017-11-26T06:31:41.989Z,67.44
2017-11-26T06:34:15.918Z,67.33
2017-11-26T06:36:51.812Z,67.21
2017-11-26T06:39:26.496Z,67.19
2017-11-26T06:41:58.412Z,67.25
2017-11-26T06:44:31.605Z,67.21
2017-11-26T06:49:31.078Z,67.23
2017-11-26T06:52:04.912Z,67.02
2017-11-26T06:54:37.824Z,66.95
2017-11-26T06:57:12.926Z,67.04
2017-11-26T06:59:47.156Z,67.13
2017-11-26T07:02:21.578Z,67.25
2017-11-26T07:04:54.555Z,67.11
2017-11-26T07:07:26.653Z,67.05
2017-11-26T07:10:01.298Z,66.90
2017-11-26T07:12:34.327Z,66.94
2017-11-26T07:15:21.219Z,67.01
2017-11-26T07:17:55.898Z,66.91
2017-11-26T07:20:28.811Z,67.02
2017-11-26T07:23:02.481Z,66.90
2017-11-26T07:25:36.391Z,66.79
2017-11-26T07:28:10.187Z,66.73
2017-11-26T07:30:46.282Z,66.75
2017-11-26T07:33:27.871Z,66.57
2017-11-26T07:36:02.779Z,66.67
2017-11-26T07:38:36.184Z,66.41
2017-11-26T07:41:11.401Z,66.54
2017-11-26T07:43:44.782Z,66.30
2017-11-26T07:46:20.796Z,66.26
2017-11-26T07:49:52.119Z,66.08
2017-11-26T07:52:24.500Z,65.54
2017-11-26T07:55:06.480Z,65.78
2017-11-26T07:57:46.280Z,65.99
2017-11-26T08:00:23.989Z,65.67
2017-11-26T08:02:56.817Z,66.24
2017-11-26T08:05:29.427Z,66.32
2017-11-26T08:08:02.545Z,66.12
2017-11-26T08:10:35.746Z,66.03
2017-11-26T08:13:11.858Z,65.85
2017-11-26T08:15:45.055Z,66.15
2017-11-26T08:18:18.362Z,66.20
2017-11-26T08:20:51.764Z,65.87
2017-11-26T08:23:26.254Z,65.88
2017-11-26T08:26:02.364Z,65.56
2017-11-26T08:28:35.041Z,65.23
2017-11-26T08:31:09.445Z,65.24
2017-11-26T08:33:43.040Z,65.47
2017-11-26T08:36:14.846Z,66.16
2017-11-26T08:38:49.947Z,66.02
2017-11-26T08:41:22.250Z,65.79
2017-11-26T08:43:56.844Z,65.65
2017-11-26T08:46:30.445Z,65.30
2017-11-26T08:49:04.953Z,65.88
2017-11-26T08:51:38.759Z,65.54
2017-11-26T08:54:11.969Z,65.56
2017-11-26T08:56:46.265Z,65.72
2017-11-26T08:59:21.675Z,65.55
2017-11-26T09:01:59.582Z,65.78
2017-11-26T09:04:32.620Z,65.78
2017-11-26T09:07:12.670Z,65.56
2017-11-26T09:09:45.778Z,65.65
2017-11-26T09:12:26.382Z,65.67
2017-11-26T09:15:01.187Z,65.82
2017-11-26T09:17:39.288Z,66.41
2017-11-26T09:20:13.684Z,66.37
2017-11-26T09:22:48.297Z,65.98
2017-11-26T09:25:25.818Z,66.63
2017-11-26T09:27:59.580Z,66.38
2017-11-26T09:30:35.506Z,66.44
2017-11-26T09:33:08.466Z,66.19
2017-11-26T09:35:43.362Z,66.32
2017-11-26T09:38:22.989Z,66.32
2017-11-26T09:41:02.858Z,66.13
2017-11-26T09:43:38.671Z,65.58
2017-11-26T09:46:14.654Z,65.37
2017-11-26T09:52:03.363Z,66.13
2017-11-26T09:54:38.074Z,66.13
2017-11-26T09:57:15.108Z,65.70
2017-11-26T09:59:51.422Z,65.68
2017-11-26T10:02:28.469Z,65.66
2017-11-26T10:05:02.803Z,65.60
2017-11-26T10:10:31.817Z,65.64
2017-11-26T10:13:13.209Z,65.38
2017-11-26T10:15:49.935Z,65.43
2017-11-26T10:18:29.851Z,64.99
2017-11-26T10:21:10.667Z,65.13
2017-11-26T10:23:48.921Z,65.34
2017-11-26T10:26:30.786Z,65.62
2017-11-26T10:29:09.353Z,65.08
2017-11-26T10:31:46.865Z,64.74
2017-11-26T10:34:27.351Z,64.99
2017-11-26T10:37:12.085Z,64.36
2017-11-26T10:39:55.566Z,64.59
2017-11-26T10:42:42.539Z,64.50
2017-11-26T10:45:46.452Z,64.25
2017-11-26T10:48:28.855Z,64.77
2017-11-26T10:51:06.951Z,65.13
2017-11-26T10:53:49.830Z,64.14
2017-11-26T10:56:57.519Z,64.72
2017-11-26T10:59:44.653Z,64.86
2017-11-26T11:02:24.342Z,64.30
2017-11-26T11:05:03.626Z,64.41
2017-11-26T11:07:44.831Z,64.32
2017-11-26T11:10:28.219Z,64.37
2017-11-26T11:13:09.937Z,64.76
2017-11-26T11:16:02.535Z,64.44
2017-11-26T11:18:49.077Z,63.97
2017-11-26T11:21:33.050Z,64.97
2017-11-26T11:24:18.347Z,64.65
2017-11-26T11:26:58.052Z,64.30
2017-11-26T11:29:36.867Z,64.57
2017-11-26T11:32:17.754Z,64.35
2017-11-26T11:34:58.880Z,64.21
2017-11-26T11:37:43.689Z,64.30
2017-11-26T11:43:11.871Z,63.81
2017-11-26T11:45:55.469Z,63.58
2017-11-26T11:48:40.041Z,64.01
2017-11-26T11:51:23.679Z,64.35
2017-11-26T11:54:05.673Z,63.68
2017-11-26T11:56:42.452Z,63.48
2017-11-26T11:59:29.976Z,63.38
2017-11-26T12:02:17.980Z,63.06
2017-11-26T12:05:01.278Z,63.22
2017-11-26T12:07:58.145Z,63.43
2017-11-26T12:10:41.353Z,63.89
2017-11-26T12:13:26.619Z,64.22
2017-11-26T12:16:07.281Z,63.77
2017-11-26T12:18:53.211Z,63.69
2017-11-26T12:21:37.992Z,63.61
2017-11-26T12:24:29.288Z,63.51
2017-11-26T12:27:14.195Z,62.91
2017-11-26T12:29:56.105Z,63.08
2017-11-26T12:32:35.917Z,63.50
2017-11-26T12:35:32.182Z,63.49
2017-11-26T12:38:19.911Z,63.07
2017-11-26T12:41:01.868Z,63.07
2017-11-26T12:43:44.317Z,62.47
2017-11-26T12:46:39.416Z,62.25
2017-11-26T12:49:41.319Z,62.00
2017-11-26T12:52:24.393Z,61.54
2017-11-26T12:55:13.943Z,60.96
2017-11-26T12:57:53.819Z,60.74
2017-11-26T13:00:36.822Z,60.34
2017-11-26T13:03:16.916Z,59.81
2017-11-26T13:06:04.607Z,59.59
2017-11-26T13:08:44.519Z,59.81
2017-11-26T13:11:33.622Z,59.75
2017-11-26T13:14:32.618Z,59.71
2017-11-26T13:17:16.220Z,59.19
2017-11-26T13:19:58.219Z,59.99
2017-11-26T13:22:38.296Z,60.85
2017-11-26T13:25:21.246Z,60.76
2017-11-26T13:28:09.214Z,59.90
2017-11-26T13:31:02.080Z,59.55
2017-11-26T13:33:52.504Z,59.87
2017-11-26T13:36:42.016Z,59.88
2017-11-26T13:39:21.843Z,59.82
2017-11-26T13:42:03.803Z,58.90
2017-11-26T13:47:44.207Z,59.80
2017-11-26T13:50:31.715Z,61.01
2017-11-26T13:53:17.112Z,61.06
2017-11-26T13:56:01.689Z,60.80
2017-11-26T13:58:55.100Z,61.58
2017-11-26T14:01:40.904Z,61.26
2017-11-26T14:04:25.559Z,61.26
2017-11-26T14:10:10.760Z,61.18
2017-11-26T14:12:51.940Z,61.41
2017-11-26T14:15:41.947Z,62.38
2017-11-26T14:18:32.906Z,62.10
2017-11-26T14:21:56.333Z,62.15
2017-11-26T14:24:50.711Z,62.13
2017-11-26T14:27:42.671Z,62.14
2017-11-26T14:30:24.228Z,61.79
2017-11-26T14:33:04.091Z,62.09
2017-11-26T14:35:51.306Z,62.38
2017-11-26T14:38:30.110Z,62.80
2017-11-26T14:41:08.115Z,62.58
2017-11-26T14:46:42.032Z,62.82
2017-11-26T14:49:27.735Z,62.07
2017-11-26T14:52:15.074Z,62.13
2017-11-26T14:55:05.139Z,62.43
2017-11-26T14:57:43.972Z,62.46
2017-11-26T15:03:20.447Z,62.45
2017-11-26T15:06:09.454Z,62.46
2017-11-26T15:08:46.662Z,62.43
2017-11-26T15:11:29.661Z,62.50
2017-11-26T15:14:13.522Z,62.78
2017-11-26T15:17:01.793Z,62.77
2017-11-26T15:19:41.541Z,63.28
2017-11-26T15:22:23.626Z,63.36
2017-11-26T15:25:08.759Z,63.06
2017-11-26T15:27:48.018Z,63.04
2017-11-26T15:30:30.860Z,63.21
2017-11-26T15:33:12.282Z,63.11
2017-11-26T15:35:55.359Z,63.20
2017-11-26T15:38:44.574Z,63.10
2017-11-26T15:41:29.866Z,63.18
2017-11-26T15:44:24.668Z,63.34
2017-11-26T15:47:06.566Z,63.40
2017-11-26T15:49:56.048Z,63.42
2017-11-26T15:52:43.658Z,63.59
2017-11-26T15:55:35.278Z,64.40
2017-11-26T15:58:23.338Z,64.34
2017-11-26T16:01:15.665Z,64.37
2017-11-26T16:04:00.923Z,64.50
2017-11-26T16:06:45.013Z,64.50
2017-11-26T16:09:37.365Z,64.69
2017-11-26T16:12:31.457Z,65.11
2017-11-26T16:18:27.744Z,64.96
2017-11-26T16:21:10.143Z,65.31
2017-11-26T16:23:52.304Z,65.24
2017-11-26T16:26:49.891Z,64.91
2017-11-26T16:29:40.105Z,64.87
2017-11-26T16:32:33.531Z,64.84
2017-11-26T16:38:03.024Z,65.18
2017-11-26T16:40:47.145Z,65.20
2017-11-26T16:43:37.232Z,65.01
2017-11-26T16:49:10.129Z,64.88
2017-11-26T16:51:52.835Z,65.03
2017-11-26T16:54:45.946Z,65.08
2017-11-26T16:57:31.010Z,65.74
2017-11-26T17:00:15.916Z,65.54
2017-11-26T17:02:57.932Z,65.48
2017-11-26T17:05:44.708Z,65.80
2017-11-26T17:08:30.894Z,65.63
2017-11-26T17:11:22.004Z,65.47
2017-11-26T17:14:04.525Z,65.50
2017-11-26T17:16:44.108Z,65.75
2017-11-26T17:19:28.005Z,65.87
2017-11-26T17:22:10.913Z,65.80
2017-11-26T17:24:51.214Z,66.09
2017-11-26T17:27:32.513Z,65.80
2017-11-26T17:30:27.132Z,65.91
2017-11-26T17:36:10.846Z,66.60
2017-11-26T17:41:42.483Z,66.83
2017-11-26T17:44:35.196Z,66.51
2017-11-26T17:47:17.992Z,66.30
2017-11-26T17:49:56.888Z,66.36
2017-11-26T17:52:39.997Z,66.37
2017-11-26T17:57:55.588Z,66.58
2017-11-26T18:00:37.584Z,66.07
2017-11-26T18:03:22.804Z,65.98
2017-11-26T18:06:06.720Z,65.82
2017-11-26T18:08:54.560Z,66.10
2017-11-26T18:11:41.717Z,65.95
2017-11-26T18:14:36.924Z,66.31
2017-11-26T18:20:13.126Z,66.61
2017-11-26T18:22:59.866Z,66.66
2017-11-26T18:25:46.911Z,66.42
2017-11-26T18:28:33.607Z,66.24
2017-11-26T18:31:14.938Z,66.30
2017-11-26T18:34:03.234Z,66.22
2017-11-26T18:36:46.759Z,66.71
2017-11-26T18:42:14.214Z,66.27
2017-11-26T18:44:51.637Z,66.29
2017-11-26T18:47:34.081Z,66.43
2017-11-26T18:50:11.050Z,66.23
2017-11-26T18:52:48.221Z,66.52
2017-11-26T18:55:27.113Z,66.25
2017-11-26T18:58:17.139Z,66.07
2017-11-26T19:01:14.469Z,66.10
2017-11-26T19:04:13.192Z,66.33
2017-11-26T19:07:05.689Z,66.36
2017-11-26T19:09:48.666Z,66.53
2017-11-26T19:12:33.059Z,66.42
2017-11-26T19:15:22.444Z,66.33
2017-11-26T19:18:03.752Z,66.32
2017-11-26T19:20:46.014Z,66.39
2017-11-26T19:23:30.322Z,66.68
2017-11-26T19:26:11.222Z,66.59
2017-11-26T19:28:50.601Z,66.46
2017-11-26T19:31:32.075Z,66.96
2017-11-26T19:34:09.109Z,66.54
2017-11-26T19:36:50.048Z,66.53
2017-11-26T19:39:31.054Z,66.71
2017-11-26T19:42:09.415Z,66.60
2017-11-26T19:45:06.643Z,66.45
2017-11-26T19:47:41.831Z,66.10
2017-11-26T19:50:21.973Z,66.37
2017-11-26T19:52:57.060Z,66.25
2017-11-26T19:55:34.695Z,65.97
2017-11-26T19:58:12.228Z,66.11
2017-11-26T20:00:53.323Z,66.20
2017-11-26T20:03:32.307Z,65.82
2017-11-26T20:06:14.078Z,65.99
2017-11-26T20:08:53.359Z,65.88
2017-11-26T20:11:37.709Z,65.73
2017-11-26T20:14:23.981Z,65.72
2017-11-26T20:17:21.047Z,65.70
2017-11-26T20:20:09.015Z,65.47
2017-11-26T20:22:57.413Z,65.21
2017-11-26T20:25:58.045Z,65.17
2017-11-26T20:28:43.974Z,65.29
2017-11-26T20:31:36.901Z,65.43
2017-11-26T20:34:32.775Z,65.10
2017-11-26T20:37:15.578Z,65.11
2017-11-26T20:39:58.244Z,65.21
2017-11-26T20:42:45.956Z,65.64
2017-11-26T20:45:36.488Z,65.67
2017-11-26T20:48:37.278Z,65.72
2017-11-26T20:51:35.140Z,65.88
2017-11-26T20:57:08.958Z,65.63
2017-11-26T20:59:51.873Z,65.54
2017-11-26T21:02:38.759Z,65.60
2017-11-26T21:05:23.765Z,65.47
2017-11-26T21:08:18.710Z,65.49
2017-11-26T21:11:13.640Z,65.50
2017-11-26T21:14:02.058Z,65.27
2017-11-26T21:16:50.486Z,65.42
2017-11-26T21:19:42.928Z,65.59
2017-11-26T21:22:26.818Z,65.68
2017-11-26T21:25:05.534Z,65.90
2017-11-26T21:27:49.817Z,65.96
2017-11-26T21:30:34.644Z,65.79
2017-11-26T21:33:15.484Z,65.84
2017-11-26T21:35:57.783Z,65.72
2017-11-26T21:41:19.733Z,65.85
2017-11-26T21:43:54.275Z,65.71
2017-11-26T21:46:30.055Z,65.58
2017-11-26T21:49:02.360Z,65.75
2017-11-26T21:51:37.027Z,65.76
2017-11-26T21:54:11.773Z,65.74
2017-11-26T21:56:45.662Z,66.25
2017-11-26T21:59:17.663Z,65.93
2017-11-26T22:01:52.457Z,65.47
2017-11-26T22:04:29.898Z,65.31
2017-11-26T22:07:05.656Z,65.36
2017-11-26T22:09:39.172Z,65.07
2017-11-26T22:12:13.956Z,64.74
2017-11-26T22:14:48.964Z,64.47
2017-11-26T22:17:21.672Z,64.15
2017-11-26T22:19:54.079Z,64.06
2017-11-26T22:25:10.589Z,63.83
2017-11-26T22:27:43.168Z,63.83
2017-11-26T22:30:30.388Z,63.79
2017-11-26T22:33:03.592Z,64.08
2017-11-26T22:35:38.460Z,64.18
2017-11-26T22:38:11.956Z,64.01
2017-11-26T22:40:48.753Z,64.28
2017-11-26T22:43:23.987Z,64.48
2017-11-26T22:45:58.217Z,64.17
2017-11-26T22:48:43.492Z,64.01
2017-11-26T22:51:18.076Z,63.74
2017-11-26T22:53:50.346Z,63.91
2017-11-26T22:56:23.960Z,63.75
2017-11-26T22:58:56.951Z,63.58
2017-11-26T23:01:30.339Z,63.70
2017-11-26T23:04:03.233Z,63.73
2017-11-26T23:06:38.171Z,63.72
2017-11-26T23:09:11.654Z,64.37
2017-11-26T23:11:47.963Z,64.27
2017-11-26T23:14:21.377Z,65.03
2017-11-26T23:16:55.693Z,66.15
2017-11-26T23:19:31.809Z,66.68
2017-11-26T23:22:06.406Z,67.62
2017-11-26T23:24:42.126Z,67.41
2017-11-26T23:27:14.188Z,67.55
2017-11-26T23:29:47.230Z,67.96
2017-11-26T23:32:20.515Z,68.62
2017-11-26T23:34:54.314Z,68.42
2017-11-26T23:37:27.021Z,68.12
2017-11-26T23:40:00.727Z,67.85
2017-11-26T23:42:38.174Z,67.81
2017-11-26T23:45:14.029Z,67.67
2017-11-26T23:47:46.226Z,67.39
2017-11-26T23:50:26.232Z,67.78
2017-11-26T23:53:05.514Z,68.08
2017-11-26T23:55:38.738Z,67.99
2017-11-26T23:58:11.829Z,68.25
